sensor_id;sensor_type;location;lat;lon;timestamp;P1;durP1;ratioP1;P2;durP2;ratioP2
23072;SDS011;67971;51.046;3.732;2023-05-07T00:02:24;21.20;;;6.13;;
23072;SDS011;67971;51.046;3.732;2023-05-07T00:04:50;12.20;;;5.78;;
23072;SDS011;67971;51.046;3.732;2023-05-07T00:07:17;16.75;;;5.93;;
23072;SDS011;67971;51.046;3.732;2023-05-07T00:09:43;19.25;;;5.88;;
23072;SDS011;67971;51.046;3.732;2023-05-07T00:12:08;19.52;;;5.93;;
23072;SDS011;67971;51.046;3.732;2023-05-07T00:14:34;16.83;;;6.32;;
23072;SDS011;67971;51.046;3.732;2023-05-07T00:17:00;15.15;;;5.72;;
23072;SDS011;67971;51.046;3.732;2023-05-07T00:19:26;16.17;;;6.15;;
23072;SDS011;67971;51.046;3.732;2023-05-07T00:21:51;17.15;;;6.25;;
23072;SDS011;67971;51.046;3.732;2023-05-07T00:24:19;15.25;;;5.57;;
23072;SDS011;67971;51.046;3.732;2023-05-07T00:26:44;13.52;;;5.63;;
23072;SDS011;67971;51.046;3.732;2023-05-07T00:29:10;15.55;;;6.22;;
23072;SDS011;67971;51.046;3.732;2023-05-07T00:31:36;20.40;;;6.47;;
23072;SDS011;67971;51.046;3.732;2023-05-07T00:34:02;14.95;;;5.97;;
23072;SDS011;67971;51.046;3.732;2023-05-07T00:36:27;14.63;;;5.25;;
23072;SDS011;67971;51.046;3.732;2023-05-07T00:38:54;15.80;;;5.95;;
23072;SDS011;67971;51.046;3.732;2023-05-07T00:41:22;13.35;;;6.00;;
23072;SDS011;67971;51.046;3.732;2023-05-07T00:43:47;18.35;;;6.22;;
23072;SDS011;67971;51.046;3.732;2023-05-07T00:46:13;21.23;;;6.40;;
23072;SDS011;67971;51.046;3.732;2023-05-07T00:48:40;19.85;;;5.68;;
23072;SDS011;67971;51.046;3.732;2023-05-07T00:51:06;17.33;;;5.53;;
23072;SDS011;67971;51.046;3.732;2023-05-07T00:53:32;20.15;;;6.25;;
23072;SDS011;67971;51.046;3.732;2023-05-07T00:55:57;15.18;;;5.60;;
23072;SDS011;67971;51.046;3.732;2023-05-07T00:58:23;19.55;;;6.05;;
23072;SDS011;67971;51.046;3.732;2023-05-07T01:00:49;15.98;;;6.20;;
23072;SDS011;67971;51.046;3.732;2023-05-07T01:03:15;16.83;;;6.88;;
23072;SDS011;67971;51.046;3.732;2023-05-07T01:05:41;12.65;;;6.13;;
23072;SDS011;67971;51.046;3.732;2023-05-07T01:08:08;22.95;;;6.32;;
23072;SDS011;67971;51.046;3.732;2023-05-07T01:10:35;15.02;;;6.03;;
23072;SDS011;67971;51.046;3.732;2023-05-07T01:13:01;18.98;;;6.65;;
23072;SDS011;67971;51.046;3.732;2023-05-07T01:15:27;12.52;;;6.20;;
23072;SDS011;67971;51.046;3.732;2023-05-07T01:17:53;20.08;;;6.53;;
23072;SDS011;67971;51.046;3.732;2023-05-07T01:20:20;13.57;;;6.70;;
23072;SDS011;67971;51.046;3.732;2023-05-07T01:22:48;15.80;;;6.53;;
23072;SDS011;67971;51.046;3.732;2023-05-07T01:25:15;15.40;;;5.90;;
23072;SDS011;67971;51.046;3.732;2023-05-07T01:27:41;17.30;;;7.22;;
23072;SDS011;67971;51.046;3.732;2023-05-07T01:30:07;12.68;;;6.85;;
23072;SDS011;67971;51.046;3.732;2023-05-07T01:35:07;16.05;;;5.88;;
23072;SDS011;67971;51.046;3.732;2023-05-07T01:37:36;17.70;;;5.95;;
23072;SDS011;67971;51.046;3.732;2023-05-07T01:40:03;15.05;;;5.93;;
23072;SDS011;67971;51.046;3.732;2023-05-07T01:42:30;17.30;;;6.10;;
23072;SDS011;67971;51.046;3.732;2023-05-07T01:44:56;16.48;;;6.43;;
23072;SDS011;67971;51.046;3.732;2023-05-07T01:47:22;16.95;;;6.90;;
23072;SDS011;67971;51.046;3.732;2023-05-07T01:49:49;15.32;;;6.07;;
23072;SDS011;67971;51.046;3.732;2023-05-07T01:52:15;15.45;;;6.63;;
23072;SDS011;67971;51.046;3.732;2023-05-07T01:54:41;16.88;;;5.95;;
23072;SDS011;67971;51.046;3.732;2023-05-07T01:57:07;16.83;;;6.50;;
23072;SDS011;67971;51.046;3.732;2023-05-07T01:59:33;14.85;;;6.78;;
23072;SDS011;67971;51.046;3.732;2023-05-07T02:01:59;17.60;;;6.85;;
23072;SDS011;67971;51.046;3.732;2023-05-07T02:04:25;19.98;;;6.55;;
23072;SDS011;67971;51.046;3.732;2023-05-07T02:06:51;18.42;;;6.97;;
23072;SDS011;67971;51.046;3.732;2023-05-07T02:09:17;15.60;;;6.88;;
23072;SDS011;67971;51.046;3.732;2023-05-07T02:11:43;15.30;;;6.97;;
23072;SDS011;67971;51.046;3.732;2023-05-07T02:14:09;16.88;;;7.38;;
23072;SDS011;67971;51.046;3.732;2023-05-07T02:16:35;19.80;;;7.20;;
23072;SDS011;67971;51.046;3.732;2023-05-07T02:19:01;16.38;;;6.68;;
23072;SDS011;67971;51.046;3.732;2023-05-07T02:21:27;15.80;;;6.45;;
23072;SDS011;67971;51.046;3.732;2023-05-07T02:23:53;14.93;;;6.78;;
23072;SDS011;67971;51.046;3.732;2023-05-07T02:26:19;20.10;;;6.78;;
23072;SDS011;67971;51.046;3.732;2023-05-07T02:28:44;20.38;;;6.97;;
23072;SDS011;67971;51.046;3.732;2023-05-07T02:31:10;17.15;;;7.20;;
23072;SDS011;67971;51.046;3.732;2023-05-07T02:33:36;15.02;;;6.78;;
23072;SDS011;67971;51.046;3.732;2023-05-07T02:36:11;14.30;;;6.70;;
23072;SDS011;67971;51.046;3.732;2023-05-07T02:38:37;16.92;;;7.43;;
23072;SDS011;67971;51.046;3.732;2023-05-07T02:41:04;17.92;;;7.75;;
23072;SDS011;67971;51.046;3.732;2023-05-07T02:43:29;14.00;;;7.18;;
23072;SDS011;67971;51.046;3.732;2023-05-07T02:46:05;15.60;;;7.53;;
23072;SDS011;67971;51.046;3.732;2023-05-07T02:48:32;17.95;;;7.60;;
23072;SDS011;67971;51.046;3.732;2023-05-07T02:50:58;18.92;;;6.95;;
23072;SDS011;67971;51.046;3.732;2023-05-07T02:53:25;21.58;;;7.30;;
23072;SDS011;67971;51.046;3.732;2023-05-07T02:55:55;15.18;;;7.47;;
23072;SDS011;67971;51.046;3.732;2023-05-07T02:58:22;16.65;;;7.50;;
23072;SDS011;67971;51.046;3.732;2023-05-07T03:00:48;15.25;;;7.53;;
23072;SDS011;67971;51.046;3.732;2023-05-07T03:03:14;15.55;;;6.57;;
23072;SDS011;67971;51.046;3.732;2023-05-07T03:05:40;14.88;;;6.90;;
23072;SDS011;67971;51.046;3.732;2023-05-07T03:08:06;14.15;;;7.07;;
23072;SDS011;67971;51.046;3.732;2023-05-07T03:10:32;14.32;;;6.97;;
23072;SDS011;67971;51.046;3.732;2023-05-07T03:12:57;15.07;;;7.18;;
23072;SDS011;67971;51.046;3.732;2023-05-07T03:15:23;12.70;;;7.60;;
23072;SDS011;67971;51.046;3.732;2023-05-07T03:17:49;12.43;;;7.05;;
23072;SDS011;67971;51.046;3.732;2023-05-07T03:20:15;16.25;;;6.93;;
23072;SDS011;67971;51.046;3.732;2023-05-07T03:22:41;14.75;;;6.93;;
23072;SDS011;67971;51.046;3.732;2023-05-07T03:25:06;13.27;;;7.20;;
23072;SDS011;67971;51.046;3.732;2023-05-07T03:27:33;16.67;;;7.22;;
23072;SDS011;67971;51.046;3.732;2023-05-07T03:29:59;14.90;;;7.18;;
23072;SDS011;67971;51.046;3.732;2023-05-07T03:32:25;16.40;;;6.50;;
23072;SDS011;67971;51.046;3.732;2023-05-07T03:34:50;12.93;;;6.85;;
23072;SDS011;67971;51.046;3.732;2023-05-07T03:37:16;13.45;;;7.57;;
23072;SDS011;67971;51.046;3.732;2023-05-07T03:39:42;16.58;;;7.60;;
23072;SDS011;67971;51.046;3.732;2023-05-07T03:42:08;18.27;;;7.35;;
23072;SDS011;67971;51.046;3.732;2023-05-07T03:44:34;17.65;;;7.85;;
23072;SDS011;67971;51.046;3.732;2023-05-07T03:47:01;16.88;;;7.07;;
23072;SDS011;67971;51.046;3.732;2023-05-07T03:49:27;17.63;;;7.25;;
23072;SDS011;67971;51.046;3.732;2023-05-07T03:51:52;16.30;;;7.60;;
23072;SDS011;67971;51.046;3.732;2023-05-07T03:54:18;18.92;;;7.25;;
23072;SDS011;67971;51.046;3.732;2023-05-07T03:56:44;15.80;;;7.65;;
23072;SDS011;67971;51.046;3.732;2023-05-07T03:59:10;15.05;;;6.90;;
23072;SDS011;67971;51.046;3.732;2023-05-07T04:01:35;17.23;;;7.13;;
23072;SDS011;67971;51.046;3.732;2023-05-07T04:04:01;22.45;;;8.20;;
23072;SDS011;67971;51.046;3.732;2023-05-07T04:06:28;13.35;;;7.10;;
23072;SDS011;67971;51.046;3.732;2023-05-07T04:08:53;16.23;;;7.32;;
23072;SDS011;67971;51.046;3.732;2023-05-07T04:11:19;16.83;;;7.68;;
23072;SDS011;67971;51.046;3.732;2023-05-07T04:13:45;14.10;;;7.22;;
23072;SDS011;67971;51.046;3.732;2023-05-07T04:16:11;16.75;;;7.97;;
23072;SDS011;67971;51.046;3.732;2023-05-07T04:18:36;19.98;;;7.35;;
23072;SDS011;67971;51.046;3.732;2023-05-07T04:21:02;16.45;;;7.70;;
23072;SDS011;67971;51.046;3.732;2023-05-07T04:23:28;18.90;;;7.78;;
23072;SDS011;67971;51.046;3.732;2023-05-07T04:25:54;18.45;;;7.75;;
23072;SDS011;67971;51.046;3.732;2023-05-07T04:28:20;19.90;;;8.52;;
23072;SDS011;67971;51.046;3.732;2023-05-07T04:30:45;15.82;;;7.30;;
23072;SDS011;67971;51.046;3.732;2023-05-07T04:33:11;13.93;;;7.60;;
23072;SDS011;67971;51.046;3.732;2023-05-07T04:35:38;12.77;;;7.38;;
23072;SDS011;67971;51.046;3.732;2023-05-07T04:38:04;18.02;;;8.10;;
23072;SDS011;67971;51.046;3.732;2023-05-07T04:40:30;18.45;;;8.38;;
23072;SDS011;67971;51.046;3.732;2023-05-07T04:42:56;15.13;;;7.63;;
23072;SDS011;67971;51.046;3.732;2023-05-07T04:45:21;17.02;;;9.00;;
23072;SDS011;67971;51.046;3.732;2023-05-07T04:47:47;21.45;;;8.57;;
23072;SDS011;67971;51.046;3.732;2023-05-07T04:50:13;21.75;;;8.30;;
23072;SDS011;67971;51.046;3.732;2023-05-07T04:52:38;19.48;;;8.73;;
23072;SDS011;67971;51.046;3.732;2023-05-07T04:55:04;12.68;;;7.45;;
23072;SDS011;67971;51.046;3.732;2023-05-07T04:57:30;17.25;;;8.70;;
23072;SDS011;67971;51.046;3.732;2023-05-07T04:59:55;17.75;;;8.02;;
23072;SDS011;67971;51.046;3.732;2023-05-07T05:02:22;20.33;;;8.40;;
23072;SDS011;67971;51.046;3.732;2023-05-07T05:04:47;14.90;;;8.70;;
23072;SDS011;67971;51.046;3.732;2023-05-07T05:07:13;20.95;;;9.13;;
23072;SDS011;67971;51.046;3.732;2023-05-07T05:09:38;18.75;;;9.07;;
23072;SDS011;67971;51.046;3.732;2023-05-07T05:12:04;15.57;;;9.48;;
23072;SDS011;67971;51.046;3.732;2023-05-07T05:14:32;15.95;;;8.85;;
23072;SDS011;67971;51.046;3.732;2023-05-07T05:16:57;23.38;;;9.63;;
23072;SDS011;67971;51.046;3.732;2023-05-07T05:19:23;22.25;;;10.07;;
23072;SDS011;67971;51.046;3.732;2023-05-07T05:21:49;19.08;;;9.40;;
23072;SDS011;67971;51.046;3.732;2023-05-07T05:24:14;22.55;;;9.98;;
23072;SDS011;67971;51.046;3.732;2023-05-07T05:26:40;20.83;;;9.48;;
23072;SDS011;67971;51.046;3.732;2023-05-07T05:29:06;15.95;;;8.80;;
23072;SDS011;67971;51.046;3.732;2023-05-07T05:31:32;24.33;;;10.20;;
23072;SDS011;67971;51.046;3.732;2023-05-07T05:33:58;20.83;;;9.30;;
23072;SDS011;67971;51.046;3.732;2023-05-07T05:36:24;18.10;;;10.00;;
23072;SDS011;67971;51.046;3.732;2023-05-07T05:38:50;16.45;;;9.32;;
23072;SDS011;67971;51.046;3.732;2023-05-07T05:41:16;14.35;;;8.35;;
23072;SDS011;67971;51.046;3.732;2023-05-07T05:43:42;18.33;;;8.50;;
23072;SDS011;67971;51.046;3.732;2023-05-07T05:46:07;23.65;;;9.90;;
23072;SDS011;67971;51.046;3.732;2023-05-07T05:48:36;20.42;;;9.70;;
23072;SDS011;67971;51.046;3.732;2023-05-07T05:51:01;17.52;;;8.52;;
23072;SDS011;67971;51.046;3.732;2023-05-07T05:53:27;21.98;;;9.30;;
23072;SDS011;67971;51.046;3.732;2023-05-07T05:55:53;16.80;;;8.38;;
23072;SDS011;67971;51.046;3.732;2023-05-07T05:58:18;16.58;;;8.05;;
23072;SDS011;67971;51.046;3.732;2023-05-07T06:00:44;25.88;;;8.13;;
23072;SDS011;67971;51.046;3.732;2023-05-07T06:03:10;16.73;;;7.28;;
23072;SDS011;67971;51.046;3.732;2023-05-07T06:05:36;22.02;;;7.82;;
23072;SDS011;67971;51.046;3.732;2023-05-07T06:08:02;16.00;;;7.55;;
23072;SDS011;67971;51.046;3.732;2023-05-07T06:10:28;21.67;;;7.93;;
23072;SDS011;67971;51.046;3.732;2023-05-07T06:12:54;15.88;;;7.38;;
23072;SDS011;67971;51.046;3.732;2023-05-07T06:15:20;14.75;;;7.07;;
23072;SDS011;67971;51.046;3.732;2023-05-07T06:17:46;16.77;;;7.50;;
23072;SDS011;67971;51.046;3.732;2023-05-07T06:20:11;18.25;;;8.18;;
23072;SDS011;67971;51.046;3.732;2023-05-07T06:22:37;19.23;;;8.63;;
23072;SDS011;67971;51.046;3.732;2023-05-07T06:25:03;17.00;;;9.40;;
23072;SDS011;67971;51.046;3.732;2023-05-07T06:27:29;18.23;;;9.45;;
23072;SDS011;67971;51.046;3.732;2023-05-07T06:29:54;16.52;;;8.55;;
23072;SDS011;67971;51.046;3.732;2023-05-07T06:32:20;22.02;;;9.55;;
23072;SDS011;67971;51.046;3.732;2023-05-07T06:34:46;15.10;;;9.50;;
23072;SDS011;67971;51.046;3.732;2023-05-07T06:37:11;19.40;;;8.85;;
23072;SDS011;67971;51.046;3.732;2023-05-07T06:39:37;18.90;;;8.70;;
23072;SDS011;67971;51.046;3.732;2023-05-07T06:42:02;14.02;;;8.27;;
23072;SDS011;67971;51.046;3.732;2023-05-07T06:44:29;18.02;;;8.73;;
23072;SDS011;67971;51.046;3.732;2023-05-07T06:46:55;15.77;;;8.75;;
23072;SDS011;67971;51.046;3.732;2023-05-07T06:49:21;14.35;;;8.05;;
23072;SDS011;67971;51.046;3.732;2023-05-07T06:51:47;15.63;;;7.45;;
23072;SDS011;67971;51.046;3.732;2023-05-07T06:54:13;18.00;;;7.67;;
23072;SDS011;67971;51.046;3.732;2023-05-07T06:56:38;10.27;;;6.60;;
23072;SDS011;67971;51.046;3.732;2023-05-07T06:59:04;13.95;;;7.35;;
23072;SDS011;67971;51.046;3.732;2023-05-07T07:01:30;16.75;;;7.03;;
23072;SDS011;67971;51.046;3.732;2023-05-07T07:03:55;12.80;;;7.38;;
23072;SDS011;67971;51.046;3.732;2023-05-07T07:06:21;11.13;;;6.93;;
23072;SDS011;67971;51.046;3.732;2023-05-07T07:08:46;12.10;;;6.45;;
23072;SDS011;67971;51.046;3.732;2023-05-07T07:11:12;11.63;;;6.45;;
23072;SDS011;67971;51.046;3.732;2023-05-07T07:13:38;10.02;;;5.95;;
23072;SDS011;67971;51.046;3.732;2023-05-07T07:16:05;15.50;;;6.53;;
23072;SDS011;67971;51.046;3.732;2023-05-07T07:18:31;12.38;;;6.80;;
23072;SDS011;67971;51.046;3.732;2023-05-07T07:20:56;17.95;;;7.82;;
23072;SDS011;67971;51.046;3.732;2023-05-07T07:23:22;11.10;;;6.10;;
23072;SDS011;67971;51.046;3.732;2023-05-07T07:25:48;12.10;;;6.15;;
23072;SDS011;67971;51.046;3.732;2023-05-07T07:28:13;12.50;;;5.72;;
23072;SDS011;67971;51.046;3.732;2023-05-07T07:30:39;13.95;;;5.82;;
23072;SDS011;67971;51.046;3.732;2023-05-07T07:33:05;15.20;;;5.38;;
23072;SDS011;67971;51.046;3.732;2023-05-07T07:35:31;11.27;;;6.28;;
23072;SDS011;67971;51.046;3.732;2023-05-07T07:37:57;13.55;;;5.90;;
23072;SDS011;67971;51.046;3.732;2023-05-07T07:40:23;10.93;;;5.85;;
23072;SDS011;67971;51.046;3.732;2023-05-07T07:42:49;14.98;;;6.50;;
23072;SDS011;67971;51.046;3.732;2023-05-07T07:45:15;18.00;;;6.55;;
23072;SDS011;67971;51.046;3.732;2023-05-07T07:47:41;12.40;;;6.18;;
23072;SDS011;67971;51.046;3.732;2023-05-07T07:50:07;16.65;;;5.88;;
23072;SDS011;67971;51.046;3.732;2023-05-07T07:52:33;13.85;;;6.45;;
23072;SDS011;67971;51.046;3.732;2023-05-07T07:54:59;15.73;;;6.30;;
23072;SDS011;67971;51.046;3.732;2023-05-07T07:57:25;13.13;;;6.70;;
23072;SDS011;67971;51.046;3.732;2023-05-07T07:59:51;19.77;;;6.55;;
23072;SDS011;67971;51.046;3.732;2023-05-07T08:02:16;19.45;;;7.03;;
23072;SDS011;67971;51.046;3.732;2023-05-07T08:04:43;15.00;;;6.25;;
23072;SDS011;67971;51.046;3.732;2023-05-07T08:07:11;14.40;;;6.38;;
23072;SDS011;67971;51.046;3.732;2023-05-07T08:09:39;13.68;;;6.32;;
23072;SDS011;67971;51.046;3.732;2023-05-07T08:12:06;19.77;;;7.20;;
23072;SDS011;67971;51.046;3.732;2023-05-07T08:14:32;12.25;;;6.28;;
23072;SDS011;67971;51.046;3.732;2023-05-07T08:16:58;19.83;;;7.05;;
23072;SDS011;67971;51.046;3.732;2023-05-07T08:19:23;20.67;;;6.80;;
23072;SDS011;67971;51.046;3.732;2023-05-07T08:21:49;12.38;;;6.65;;
23072;SDS011;67971;51.046;3.732;2023-05-07T08:24:15;14.20;;;5.88;;
23072;SDS011;67971;51.046;3.732;2023-05-07T08:26:42;13.48;;;6.10;;
23072;SDS011;67971;51.046;3.732;2023-05-07T08:29:08;17.58;;;6.55;;
23072;SDS011;67971;51.046;3.732;2023-05-07T08:31:34;12.35;;;6.10;;
23072;SDS011;67971;51.046;3.732;2023-05-07T08:34:00;11.18;;;5.93;;
23072;SDS011;67971;51.046;3.732;2023-05-07T08:36:26;11.13;;;6.00;;
23072;SDS011;67971;51.046;3.732;2023-05-07T08:38:52;17.52;;;6.78;;
23072;SDS011;67971;51.046;3.732;2023-05-07T08:41:18;16.45;;;6.38;;
23072;SDS011;67971;51.046;3.732;2023-05-07T08:43:48;12.93;;;6.60;;
23072;SDS011;67971;51.046;3.732;2023-05-07T08:46:21;14.68;;;6.93;;
23072;SDS011;67971;51.046;3.732;2023-05-07T08:48:50;14.02;;;6.53;;
23072;SDS011;67971;51.046;3.732;2023-05-07T08:51:20;16.90;;;6.88;;
23072;SDS011;67971;51.046;3.732;2023-05-07T08:53:47;18.52;;;7.57;;
23072;SDS011;67971;51.046;3.732;2023-05-07T08:56:14;15.52;;;7.10;;
23072;SDS011;67971;51.046;3.732;2023-05-07T08:58:40;17.50;;;7.68;;
23072;SDS011;67971;51.046;3.732;2023-05-07T09:01:08;15.95;;;7.07;;
23072;SDS011;67971;51.046;3.732;2023-05-07T09:03:37;14.85;;;7.18;;
23072;SDS011;67971;51.046;3.732;2023-05-07T09:06:04;13.60;;;6.63;;
23072;SDS011;67971;51.046;3.732;2023-05-07T09:08:31;14.57;;;6.95;;
23072;SDS011;67971;51.046;3.732;2023-05-07T09:10:57;13.20;;;6.35;;
23072;SDS011;67971;51.046;3.732;2023-05-07T09:13:23;12.73;;;6.10;;
23072;SDS011;67971;51.046;3.732;2023-05-07T09:15:49;13.25;;;6.05;;
23072;SDS011;67971;51.046;3.732;2023-05-07T09:18:15;14.18;;;6.28;;
23072;SDS011;67971;51.046;3.732;2023-05-07T09:20:41;15.80;;;6.40;;
23072;SDS011;67971;51.046;3.732;2023-05-07T09:23:07;14.15;;;6.95;;
23072;SDS011;67971;51.046;3.732;2023-05-07T09:25:34;13.70;;;5.60;;
23072;SDS011;67971;51.046;3.732;2023-05-07T09:28:01;13.07;;;6.47;;
23072;SDS011;67971;51.046;3.732;2023-05-07T09:30:31;17.42;;;7.38;;
23072;SDS011;67971;51.046;3.732;2023-05-07T09:33:02;14.80;;;6.10;;
23072;SDS011;67971;51.046;3.732;2023-05-07T09:35:29;14.18;;;6.07;;
23072;SDS011;67971;51.046;3.732;2023-05-07T09:37:59;15.32;;;6.22;;
23072;SDS011;67971;51.046;3.732;2023-05-07T09:40:26;13.18;;;5.82;;
23072;SDS011;67971;51.046;3.732;2023-05-07T09:42:54;15.30;;;6.05;;
23072;SDS011;67971;51.046;3.732;2023-05-07T09:45:26;10.07;;;5.47;;
23072;SDS011;67971;51.046;3.732;2023-05-07T09:47:54;11.52;;;5.65;;
23072;SDS011;67971;51.046;3.732;2023-05-07T09:50:28;11.63;;;6.03;;
23072;SDS011;67971;51.046;3.732;2023-05-07T09:52:55;13.20;;;6.25;;
23072;SDS011;67971;51.046;3.732;2023-05-07T09:55:22;12.10;;;6.40;;
23072;SDS011;67971;51.046;3.732;2023-05-07T09:57:51;14.82;;;6.85;;
23072;SDS011;67971;51.046;3.732;2023-05-07T10:00:18;15.27;;;7.45;;
23072;SDS011;67971;51.046;3.732;2023-05-07T10:02:49;11.55;;;6.50;;
23072;SDS011;67971;51.046;3.732;2023-05-07T10:05:19;13.00;;;6.20;;
23072;SDS011;67971;51.046;3.732;2023-05-07T10:07:46;11.88;;;5.43;;
23072;SDS011;67971;51.046;3.732;2023-05-07T10:10:13;11.05;;;5.53;;
23072;SDS011;67971;51.046;3.732;2023-05-07T10:12:40;10.98;;;5.65;;
23072;SDS011;67971;51.046;3.732;2023-05-07T10:15:10;11.35;;;5.05;;
23072;SDS011;67971;51.046;3.732;2023-05-07T10:17:37;10.98;;;5.13;;
23072;SDS011;67971;51.046;3.732;2023-05-07T10:20:04;8.45;;;4.00;;
23072;SDS011;67971;51.046;3.732;2023-05-07T10:22:32;10.45;;;4.07;;
23072;SDS011;67971;51.046;3.732;2023-05-07T10:25:14;8.50;;;3.95;;
23072;SDS011;67971;51.046;3.732;2023-05-07T10:27:43;7.63;;;3.33;;
23072;SDS011;67971;51.046;3.732;2023-05-07T10:32:54;8.23;;;3.42;;
23072;SDS011;67971;51.046;3.732;2023-05-07T10:35:30;10.35;;;4.13;;
23072;SDS011;67971;51.046;3.732;2023-05-07T10:38:01;6.90;;;3.10;;
23072;SDS011;67971;51.046;3.732;2023-05-07T10:40:27;11.38;;;3.63;;
23072;SDS011;67971;51.046;3.732;2023-05-07T10:42:56;5.50;;;2.78;;
23072;SDS011;67971;51.046;3.732;2023-05-07T10:45:24;6.68;;;2.83;;
23072;SDS011;67971;51.046;3.732;2023-05-07T10:50:39;8.90;;;2.90;;
23072;SDS011;67971;51.046;3.732;2023-05-07T10:55:48;6.50;;;3.10;;
23072;SDS011;67971;51.046;3.732;2023-05-07T11:00:46;6.38;;;3.22;;
23072;SDS011;67971;51.046;3.732;2023-05-07T11:03:13;8.60;;;3.47;;
23072;SDS011;67971;51.046;3.732;2023-05-07T11:05:40;6.95;;;3.80;;
23072;SDS011;67971;51.046;3.732;2023-05-07T11:08:07;7.00;;;3.40;;
23072;SDS011;67971;51.046;3.732;2023-05-07T11:13:40;8.55;;;3.47;;
23072;SDS011;67971;51.046;3.732;2023-05-07T11:16:25;6.88;;;3.47;;
23072;SDS011;67971;51.046;3.732;2023-05-07T11:18:55;6.15;;;3.22;;
23072;SDS011;67971;51.046;3.732;2023-05-07T11:21:38;9.38;;;3.97;;
23072;SDS011;67971;51.046;3.732;2023-05-07T11:24:08;7.97;;;3.75;;
23072;SDS011;67971;51.046;3.732;2023-05-07T11:26:41;10.43;;;5.22;;
23072;SDS011;67971;51.046;3.732;2023-05-07T11:29:21;7.65;;;3.92;;
23072;SDS011;67971;51.046;3.732;2023-05-07T11:31:50;8.23;;;4.78;;
23072;SDS011;67971;51.046;3.732;2023-05-07T11:34:24;8.18;;;3.50;;
23072;SDS011;67971;51.046;3.732;2023-05-07T11:36:51;6.50;;;3.72;;
23072;SDS011;67971;51.046;3.732;2023-05-07T11:39:50;6.47;;;3.17;;
23072;SDS011;67971;51.046;3.732;2023-05-07T11:42:25;6.25;;;4.18;;
23072;SDS011;67971;51.046;3.732;2023-05-07T11:44:54;4.38;;;3.22;;
23072;SDS011;67971;51.046;3.732;2023-05-07T11:47:20;5.80;;;3.53;;
23072;SDS011;67971;51.046;3.732;2023-05-07T11:49:49;6.25;;;3.00;;
23072;SDS011;67971;51.046;3.732;2023-05-07T11:52:17;5.93;;;2.92;;
23072;SDS011;67971;51.046;3.732;2023-05-07T11:54:53;6.90;;;3.22;;
23072;SDS011;67971;51.046;3.732;2023-05-07T11:57:20;4.07;;;2.42;;
23072;SDS011;67971;51.046;3.732;2023-05-07T11:59:47;4.57;;;2.53;;
23072;SDS011;67971;51.046;3.732;2023-05-07T12:02:13;7.85;;;2.90;;
23072;SDS011;67971;51.046;3.732;2023-05-07T12:04:40;4.75;;;3.00;;
23072;SDS011;67971;51.046;3.732;2023-05-07T12:07:10;5.00;;;2.95;;
23072;SDS011;67971;51.046;3.732;2023-05-07T12:09:37;6.32;;;2.60;;
23072;SDS011;67971;51.046;3.732;2023-05-07T12:12:03;5.88;;;2.20;;
23072;SDS011;67971;51.046;3.732;2023-05-07T12:14:29;4.68;;;2.47;;
23072;SDS011;67971;51.046;3.732;2023-05-07T12:16:55;5.40;;;2.50;;
23072;SDS011;67971;51.046;3.732;2023-05-07T12:19:21;3.38;;;2.55;;
23072;SDS011;67971;51.046;3.732;2023-05-07T12:21:47;6.07;;;2.47;;
23072;SDS011;67971;51.046;3.732;2023-05-07T12:24:16;7.22;;;3.03;;
23072;SDS011;67971;51.046;3.732;2023-05-07T12:26:41;4.05;;;2.85;;
23072;SDS011;67971;51.046;3.732;2023-05-07T12:29:08;4.80;;;2.47;;
23072;SDS011;67971;51.046;3.732;2023-05-07T12:31:34;5.07;;;2.75;;
23072;SDS011;67971;51.046;3.732;2023-05-07T12:34:00;4.43;;;2.63;;
23072;SDS011;67971;51.046;3.732;2023-05-07T12:36:25;5.65;;;3.30;;
23072;SDS011;67971;51.046;3.732;2023-05-07T12:38:53;7.30;;;3.00;;
23072;SDS011;67971;51.046;3.732;2023-05-07T12:41:20;7.88;;;3.20;;
23072;SDS011;67971;51.046;3.732;2023-05-07T12:43:50;5.25;;;3.40;;
23072;SDS011;67971;51.046;3.732;2023-05-07T12:46:22;8.57;;;3.60;;
23072;SDS011;67971;51.046;3.732;2023-05-07T12:48:48;7.55;;;3.30;;
23072;SDS011;67971;51.046;3.732;2023-05-07T12:51:14;5.07;;;3.50;;
23072;SDS011;67971;51.046;3.732;2023-05-07T12:53:41;4.93;;;2.55;;
23072;SDS011;67971;51.046;3.732;2023-05-07T12:56:07;4.10;;;2.80;;
23072;SDS011;67971;51.046;3.732;2023-05-07T12:58:34;5.10;;;2.70;;
23072;SDS011;67971;51.046;3.732;2023-05-07T13:01:04;4.80;;;2.80;;
23072;SDS011;67971;51.046;3.732;2023-05-07T13:03:35;3.80;;;2.60;;
23072;SDS011;67971;51.046;3.732;2023-05-07T13:06:03;6.53;;;2.92;;
23072;SDS011;67971;51.046;3.732;2023-05-07T13:08:33;7.68;;;3.00;;
23072;SDS011;67971;51.046;3.732;2023-05-07T13:11:02;7.07;;;3.42;;
23072;SDS011;67971;51.046;3.732;2023-05-07T13:13:30;5.57;;;2.90;;
23072;SDS011;67971;51.046;3.732;2023-05-07T13:15:56;5.13;;;3.17;;
23072;SDS011;67971;51.046;3.732;2023-05-07T13:18:22;5.50;;;3.05;;
23072;SDS011;67971;51.046;3.732;2023-05-07T13:20:49;5.65;;;3.10;;
23072;SDS011;67971;51.046;3.732;2023-05-07T13:23:15;5.50;;;3.40;;
23072;SDS011;67971;51.046;3.732;2023-05-07T13:25:41;5.53;;;2.75;;
23072;SDS011;67971;51.046;3.732;2023-05-07T13:28:06;3.50;;;2.80;;
23072;SDS011;67971;51.046;3.732;2023-05-07T13:30:32;4.72;;;3.50;;
23072;SDS011;67971;51.046;3.732;2023-05-07T13:32:57;4.93;;;3.40;;
23072;SDS011;67971;51.046;3.732;2023-05-07T13:35:23;4.25;;;3.25;;
23072;SDS011;67971;51.046;3.732;2023-05-07T13:37:49;8.15;;;3.95;;
23072;SDS011;67971;51.046;3.732;2023-05-07T13:40:17;7.82;;;3.08;;
23072;SDS011;67971;51.046;3.732;2023-05-07T13:42:43;4.55;;;3.10;;
23072;SDS011;67971;51.046;3.732;2023-05-07T13:45:09;5.30;;;3.13;;
23072;SDS011;67971;51.046;3.732;2023-05-07T13:47:35;5.32;;;2.70;;
23072;SDS011;67971;51.046;3.732;2023-05-07T13:50:01;5.00;;;2.55;;
23072;SDS011;67971;51.046;3.732;2023-05-07T13:52:27;5.35;;;3.08;;
23072;SDS011;67971;51.046;3.732;2023-05-07T13:54:52;4.22;;;2.88;;
23072;SDS011;67971;51.046;3.732;2023-05-07T13:57:18;5.07;;;3.28;;
23072;SDS011;67971;51.046;3.732;2023-05-07T13:59:44;4.72;;;2.95;;
23072;SDS011;67971;51.046;3.732;2023-05-07T14:02:09;4.22;;;2.80;;
23072;SDS011;67971;51.046;3.732;2023-05-07T14:04:35;3.85;;;2.88;;
23072;SDS011;67971;51.046;3.732;2023-05-07T14:07:02;6.85;;;3.10;;
23072;SDS011;67971;51.046;3.732;2023-05-07T14:09:28;6.70;;;3.10;;
23072;SDS011;67971;51.046;3.732;2023-05-07T14:11:53;6.72;;;3.20;;
23072;SDS011;67971;51.046;3.732;2023-05-07T14:14:19;6.50;;;3.08;;
23072;SDS011;67971;51.046;3.732;2023-05-07T14:16:45;5.85;;;3.17;;
23072;SDS011;67971;51.046;3.732;2023-05-07T14:19:14;4.43;;;2.90;;
23072;SDS011;67971;51.046;3.732;2023-05-07T14:21:40;4.88;;;2.90;;
23072;SDS011;67971;51.046;3.732;2023-05-07T14:24:06;5.78;;;3.00;;
23072;SDS011;67971;51.046;3.732;2023-05-07T14:26:32;6.22;;;3.30;;
23072;SDS011;67971;51.046;3.732;2023-05-07T14:28:58;6.03;;;3.33;;
23072;SDS011;67971;51.046;3.732;2023-05-07T14:31:24;3.97;;;3.40;;
23072;SDS011;67971;51.046;3.732;2023-05-07T14:33:50;6.38;;;4.40;;
23072;SDS011;67971;51.046;3.732;2023-05-07T14:36:17;6.72;;;3.72;;
23072;SDS011;67971;51.046;3.732;2023-05-07T14:38:45;6.10;;;4.38;;
23072;SDS011;67971;51.046;3.732;2023-05-07T14:41:11;7.50;;;5.45;;
23072;SDS011;67971;51.046;3.732;2023-05-07T14:43:37;7.63;;;5.88;;
23072;SDS011;67971;51.046;3.732;2023-05-07T14:46:02;11.80;;;6.43;;
23072;SDS011;67971;51.046;3.732;2023-05-07T14:48:28;9.23;;;6.28;;
23072;SDS011;67971;51.046;3.732;2023-05-07T14:50:54;10.23;;;7.07;;
23072;SDS011;67971;51.046;3.732;2023-05-07T14:53:19;10.32;;;5.75;;